createdAt,value
2023-10-23T00:00:09.536Z,12.27
2023-10-23T00:02:42.277Z,8.73
2023-10-23T00:05:10.833Z,10.57
2023-10-23T00:07:39.221Z,10.50
2023-10-23T00:10:09.090Z,10.30
2023-10-23T00:12:37.489Z,12.13
2023-10-23T00:15:06.633Z,10.03
2023-10-23T00:17:35.074Z,11.03
2023-10-23T00:20:05.129Z,10.53
2023-10-23T00:22:33.397Z,9.20
2023-10-23T00:25:01.662Z,8.90
2023-10-23T00:27:30.026Z,9.40
2023-10-23T00:29:58.338Z,9.37
2023-10-23T00:32:26.822Z,9.60
2023-10-23T00:34:55.085Z,12.57
2023-10-23T00:37:24.761Z,11.43
2023-10-23T00:39:53.181Z,9.87
2023-10-23T00:42:21.426Z,13.60
2023-10-23T00:44:49.861Z,9.80
2023-10-23T00:47:19.750Z,9.10
2023-10-23T00:49:48.010Z,7.07
2023-10-23T00:52:16.793Z,10.50
2023-10-23T00:54:48.067Z,9.87
2023-10-23T00:57:16.473Z,10.17
2023-10-23T00:59:45.168Z,10.13
2023-10-23T01:02:13.794Z,9.27
2023-10-23T01:04:42.579Z,9.70
2023-10-23T01:07:11.443Z,8.80
2023-10-23T01:09:39.970Z,8.27
2023-10-23T01:12:10.387Z,11.87
2023-10-23T01:14:38.829Z,11.13
2023-10-23T01:17:08.273Z,9.20
2023-10-23T01:19:36.707Z,10.47
2023-10-23T01:22:05.195Z,9.03
2023-10-23T01:24:38.351Z,11.43
2023-10-23T01:27:08.262Z,8.87
2023-10-23T01:29:37.311Z,10.30
2023-10-23T01:32:06.072Z,9.00
2023-10-23T01:34:34.520Z,10.90
2023-10-23T01:37:02.796Z,11.27
2023-10-23T01:39:31.052Z,7.97
2023-10-23T01:42:00.417Z,7.10
2023-10-23T01:44:30.121Z,7.60
2023-10-23T01:46:58.439Z,9.67
2023-10-23T01:49:27.190Z,9.43
2023-10-23T01:51:56.094Z,11.27
2023-10-23T01:54:24.503Z,10.43
2023-10-23T01:56:52.874Z,9.67
2023-10-23T01:59:21.117Z,7.00
2023-10-23T02:01:50.833Z,11.73
2023-10-23T02:04:19.161Z,13.03
2023-10-23T02:06:47.542Z,7.77
2023-10-23T02:09:17.378Z,9.50
2023-10-23T02:11:45.940Z,10.20
2023-10-23T02:14:14.315Z,7.10
2023-10-23T02:16:41.643Z,10.57
2023-10-23T02:19:11.421Z,11.17
2023-10-23T02:21:39.770Z,8.97
2023-10-23T02:24:08.398Z,9.77
2023-10-23T02:26:36.585Z,11.20
2023-10-23T02:29:04.843Z,10.27
2023-10-23T02:31:33.188Z,11.50
2023-10-23T02:34:01.441Z,8.50
2023-10-23T02:36:31.614Z,11.30
2023-10-23T02:39:00.783Z,9.50
2023-10-23T02:41:31.886Z,12.17
2023-10-23T02:44:00.201Z,10.67
2023-10-23T02:46:28.676Z,8.80
2023-10-23T02:48:56.999Z,10.40
2023-10-23T02:51:25.589Z,11.60
2023-10-23T02:53:55.238Z,8.43
2023-10-23T02:56:23.535Z,10.53
2023-10-23T02:58:51.764Z,15.77
2023-10-23T03:01:22.493Z,8.07
2023-10-23T03:03:50.856Z,11.63
2023-10-23T03:06:19.557Z,8.27
2023-10-23T03:08:47.924Z,9.63
2023-10-23T03:11:17.599Z,10.87
2023-10-23T03:13:46.022Z,8.83
2023-10-23T03:16:15.741Z,10.00
2023-10-23T03:18:44.149Z,11.30
2023-10-23T03:21:12.581Z,9.27
2023-10-23T03:23:40.808Z,9.50
2023-10-23T03:26:09.061Z,11.67
2023-10-23T03:28:38.735Z,14.37
2023-10-23T03:31:06.934Z,8.97
2023-10-23T03:33:35.162Z,7.70
2023-10-23T03:36:03.412Z,12.83
2023-10-23T03:38:31.962Z,11.97
2023-10-23T03:41:01.795Z,12.20
2023-10-23T03:43:30.516Z,7.57
2023-10-23T03:46:04.173Z,11.00
2023-10-23T03:48:32.562Z,12.97
2023-10-23T03:51:02.242Z,11.27
2023-10-23T03:53:30.608Z,9.13
2023-10-23T03:55:58.848Z,13.63
2023-10-23T03:58:27.100Z,10.03
2023-10-23T04:00:56.019Z,8.73
2023-10-23T04:03:25.915Z,12.63
2023-10-23T04:05:54.311Z,10.03
2023-10-23T04:08:22.652Z,10.50
2023-10-23T04:10:51.362Z,11.63
2023-10-23T04:13:19.673Z,10.43
2023-10-23T04:15:55.565Z,9.07
2023-10-23T04:18:26.762Z,12.57
2023-10-23T04:21:04.698Z,11.37
2023-10-23T04:23:33.187Z,10.90
2023-10-23T04:26:01.630Z,10.20
2023-10-23T04:28:30.090Z,11.70
2023-10-23T04:30:58.368Z,11.73
2023-10-23T04:33:28.492Z,10.10
2023-10-23T04:35:58.021Z,11.77
2023-10-23T04:38:26.949Z,8.50
2023-10-23T04:40:55.319Z,9.83
2023-10-23T04:43:24.292Z,10.63
2023-10-23T04:45:54.427Z,11.77
2023-10-23T04:48:23.185Z,9.17
2023-10-23T04:50:52.801Z,10.53
2023-10-23T04:53:21.639Z,13.07
2023-10-23T04:55:49.956Z,11.93
2023-10-23T04:58:18.353Z,15.07
2023-10-23T05:00:46.826Z,10.47
2023-10-23T05:03:15.195Z,9.27
2023-10-23T05:05:49.210Z,10.10
2023-10-23T05:08:18.942Z,15.10
2023-10-23T05:10:47.323Z,13.50
2023-10-23T05:13:15.613Z,11.37
2023-10-23T05:15:44.017Z,11.27
2023-10-23T05:18:12.355Z,12.20
2023-10-23T05:20:40.589Z,15.00
2023-10-23T05:23:08.827Z,9.93
2023-10-23T05:25:40.194Z,14.60
2023-10-23T05:28:08.514Z,11.40
2023-10-23T05:30:36.726Z,11.93
2023-10-23T05:33:05.544Z,11.23
2023-10-23T05:35:34.035Z,11.93
2023-10-23T05:38:02.348Z,11.23
2023-10-23T05:40:33.497Z,13.43
2023-10-23T05:43:03.312Z,13.60
2023-10-23T05:45:31.746Z,12.97
2023-10-23T05:48:00.064Z,12.13
2023-10-23T05:50:28.372Z,9.83
2023-10-23T05:52:56.612Z,11.83
2023-10-23T05:55:24.902Z,12.10
2023-10-23T05:57:53.738Z,8.57
2023-10-23T06:00:23.589Z,9.03
2023-10-23T06:02:52.206Z,12.87
2023-10-23T06:05:20.499Z,10.20
2023-10-23T06:07:49.010Z,11.00
2023-10-23T06:10:17.479Z,9.43
2023-10-23T06:12:45.723Z,13.47
2023-10-23T06:15:13.995Z,8.53
2023-10-23T06:17:43.659Z,12.40
2023-10-23T06:20:12.793Z,11.20
2023-10-23T06:22:41.003Z,15.57
2023-10-23T06:25:10.036Z,10.17
2023-10-23T06:27:38.313Z,11.47
2023-10-23T06:30:07.917Z,8.70
2023-10-23T06:32:36.558Z,12.40
2023-10-23T06:35:07.366Z,11.03
2023-10-23T06:37:35.692Z,9.33
2023-10-23T06:40:04.205Z,9.97
2023-10-23T06:42:32.496Z,11.10
2023-10-23T06:45:00.954Z,9.53
2023-10-23T06:47:29.650Z,9.07
2023-10-23T06:49:57.903Z,10.50
2023-10-23T06:52:27.600Z,10.03
2023-10-23T06:54:55.859Z,7.77
2023-10-23T06:57:24.132Z,16.53
2023-10-23T06:59:55.387Z,7.60
2023-10-23T07:02:23.893Z,11.23
2023-10-23T07:04:52.181Z,9.57
2023-10-23T07:07:29.018Z,14.17
2023-10-23T07:10:01.631Z,12.50
2023-10-23T07:12:30.212Z,10.13
2023-10-23T07:14:58.525Z,10.50
2023-10-23T07:17:27.017Z,14.00
2023-10-23T07:19:55.311Z,14.43
2023-10-23T07:22:23.523Z,15.63
2023-10-23T07:24:51.756Z,15.90
2023-10-23T07:27:21.508Z,12.33
2023-10-23T07:29:49.876Z,14.70
2023-10-23T07:32:18.154Z,11.70
2023-10-23T07:34:46.381Z,13.23
2023-10-23T07:37:19.300Z,16.43
2023-10-23T07:39:48.986Z,13.17
2023-10-23T07:42:17.532Z,11.43
2023-10-23T07:44:47.421Z,9.43
2023-10-23T07:47:15.909Z,15.00
2023-10-23T07:49:44.138Z,18.50
2023-10-23T07:52:12.456Z,14.87
2023-10-23T07:54:40.753Z,13.60
2023-10-23T07:57:09.031Z,15.57
2023-10-23T07:59:37.440Z,14.30
2023-10-23T08:02:07.990Z,10.67
2023-10-23T08:04:36.421Z,16.93
2023-10-23T08:07:04.985Z,12.60
2023-10-23T08:09:33.265Z,13.83
2023-10-23T08:12:01.486Z,12.97
2023-10-23T08:14:29.822Z,12.47
2023-10-23T08:16:58.134Z,10.57
2023-10-23T08:19:28.015Z,12.37
2023-10-23T08:21:56.411Z,15.43
2023-10-23T08:24:24.894Z,13.47
2023-10-23T08:26:53.237Z,18.83
2023-10-23T08:29:21.571Z,11.20
2023-10-23T08:31:49.854Z,11.57
2023-10-23T08:34:22.358Z,11.77
2023-10-23T08:36:52.389Z,13.07
2023-10-23T08:39:20.857Z,12.20
2023-10-23T08:41:49.745Z,15.33
2023-10-23T08:44:18.163Z,11.20
2023-10-23T08:46:46.447Z,9.13
2023-10-23T08:49:17.405Z,8.20
2023-10-23T08:51:51.141Z,12.57
2023-10-23T08:54:22.652Z,10.07
2023-10-23T08:56:55.700Z,11.87
2023-10-23T08:59:24.128Z,15.20
2023-10-23T09:01:52.729Z,9.77
2023-10-23T09:04:27.226Z,13.20
2023-10-23T09:06:57.294Z,14.27
2023-10-23T09:09:27.769Z,11.47
2023-10-23T09:11:56.062Z,12.73
2023-10-23T09:14:26.002Z,12.90
2023-10-23T09:16:56.011Z,13.57
2023-10-23T09:19:29.218Z,12.87
2023-10-23T09:22:00.816Z,11.80
2023-10-23T09:24:34.790Z,10.70
2023-10-23T09:27:03.189Z,9.33
2023-10-23T09:29:31.491Z,11.23
2023-10-23T09:32:00.714Z,10.07
2023-10-23T09:34:30.988Z,8.47
2023-10-23T09:36:59.762Z,13.80
2023-10-23T09:39:28.233Z,13.97
2023-10-23T09:41:58.499Z,10.27
2023-10-23T09:44:29.168Z,9.63
2023-10-23T09:47:00.842Z,13.77
2023-10-23T09:49:31.120Z,10.80
2023-10-23T09:52:01.831Z,11.27
2023-10-23T09:54:32.724Z,13.67
2023-10-23T09:57:06.045Z,10.73
2023-10-23T09:59:43.408Z,9.57
2023-10-23T10:02:12.670Z,10.93
2023-10-23T10:04:51.468Z,9.90
2023-10-23T10:07:25.004Z,13.77
2023-10-23T10:09:54.777Z,12.47
2023-10-23T10:12:26.804Z,9.77
2023-10-23T10:14:57.586Z,9.80
2023-10-23T10:17:27.712Z,9.90
2023-10-23T10:19:57.378Z,11.03
2023-10-23T10:22:30.027Z,9.77
2023-10-23T10:24:59.114Z,10.07
2023-10-23T10:27:29.531Z,10.30
2023-10-23T10:29:57.823Z,13.47
2023-10-23T10:32:26.322Z,13.23
2023-10-23T10:34:57.726Z,19.67
2023-10-23T10:37:29.006Z,11.83
2023-10-23T10:40:09.057Z,11.27
2023-10-23T10:42:43.354Z,11.67
2023-10-23T10:45:20.955Z,6.20
2023-10-23T10:47:52.987Z,12.03
2023-10-23T10:50:36.033Z,10.60
2023-10-23T10:53:05.683Z,10.13
2023-10-23T10:55:34.723Z,9.67
2023-10-23T10:58:05.254Z,10.13
2023-10-23T11:00:36.678Z,10.53
2023-10-23T11:03:05.493Z,9.73
2023-10-23T11:05:34.236Z,10.77
2023-10-23T11:08:02.596Z,7.43
2023-10-23T11:10:30.871Z,10.80
2023-10-23T11:13:00.319Z,8.70
2023-10-23T11:15:29.997Z,7.67
2023-10-23T11:17:58.535Z,6.40
2023-10-23T11:20:32.040Z,10.90
2023-10-23T11:23:00.737Z,11.23
2023-10-23T11:25:29.238Z,9.43
2023-10-23T11:27:57.605Z,11.60
2023-10-23T11:30:30.751Z,12.37
2023-10-23T11:32:59.049Z,9.17
2023-10-23T11:35:35.017Z,10.40
2023-10-23T11:38:05.888Z,7.13
2023-10-23T11:40:37.975Z,9.10
2023-10-23T11:43:10.818Z,14.17
2023-10-23T11:45:41.368Z,5.17
2023-10-23T11:48:10.192Z,10.73
2023-10-23T11:50:39.538Z,9.33
2023-10-23T11:53:08.062Z,10.93
2023-10-23T11:55:40.144Z,7.60
2023-10-23T11:58:08.516Z,9.60
2023-10-23T12:00:38.889Z,9.27
2023-10-23T12:03:08.637Z,9.17
2023-10-23T12:05:36.943Z,7.70
2023-10-23T12:08:06.235Z,8.57
2023-10-23T12:10:39.246Z,8.07
2023-10-23T12:13:07.797Z,6.13
2023-10-23T12:15:36.046Z,9.33
2023-10-23T12:18:05.650Z,8.47
2023-10-23T12:20:36.567Z,9.37
2023-10-23T12:23:04.806Z,6.03
2023-10-23T12:25:33.084Z,9.13
2023-10-23T12:28:01.347Z,8.77
2023-10-23T12:30:29.648Z,8.67
2023-10-23T12:33:16.629Z,6.93
2023-10-23T12:35:49.682Z,7.60
2023-10-23T12:38:19.206Z,10.37
2023-10-23T12:40:49.889Z,8.60
2023-10-23T12:43:18.376Z,8.10
2023-10-23T12:45:47.835Z,16.00
2023-10-23T12:48:16.606Z,11.10
2023-10-23T12:50:45.629Z,11.50
2023-10-23T12:53:15.704Z,11.83
2023-10-23T12:55:44.892Z,11.03
2023-10-23T12:58:13.188Z,9.23
2023-10-23T13:00:41.566Z,11.50
2023-10-23T13:03:09.902Z,11.20
2023-10-23T13:05:38.216Z,9.50
2023-10-23T13:08:06.825Z,13.57
2023-10-23T13:10:36.704Z,11.77
2023-10-23T13:13:05.018Z,8.87
2023-10-23T13:15:33.356Z,12.30
2023-10-23T13:18:03.830Z,10.57
2023-10-23T13:21:28.277Z,14.37
2023-10-23T13:23:20.423Z,12.10
2023-10-23T13:26:05.769Z,9.70
2023-10-23T13:28:38.323Z,12.13
2023-10-23T13:31:06.763Z,8.97
2023-10-23T13:33:35.056Z,12.17
2023-10-23T13:36:03.373Z,10.23
2023-10-23T13:38:33.224Z,10.73
2023-10-23T13:41:03.673Z,13.27
2023-10-23T13:43:31.977Z,14.83
2023-10-23T13:46:00.450Z,9.67
2023-10-23T13:48:29.038Z,8.87
2023-10-23T13:50:57.805Z,7.83
2023-10-23T13:53:26.067Z,10.73
2023-10-23T13:55:54.484Z,10.83
2023-10-23T13:58:24.214Z,8.03
2023-10-23T14:00:52.551Z,11.73
2023-10-23T14:03:20.829Z,13.33
2023-10-23T14:05:49.085Z,12.93
2023-10-23T14:08:17.442Z,9.40
2023-10-23T14:10:46.169Z,13.40
2023-10-23T14:13:35.741Z,9.83
2023-10-23T14:16:05.711Z,10.80
2023-10-23T14:18:34.079Z,9.37
2023-10-23T14:21:02.301Z,12.40
2023-10-23T14:23:30.534Z,7.47
2023-10-23T14:25:58.788Z,13.77
2023-10-23T14:28:27.154Z,12.13
2023-10-23T14:30:57.985Z,8.23
2023-10-23T14:33:27.860Z,12.43
2023-10-23T14:35:56.273Z,11.53
2023-10-23T14:38:25.728Z,9.40
2023-10-23T14:40:54.846Z,8.57
2023-10-23T14:43:23.180Z,11.80
2023-10-23T14:45:52.724Z,7.10
2023-10-23T14:48:24.201Z,10.73
2023-10-23T14:50:54.465Z,9.27
2023-10-23T14:53:22.907Z,11.63
2023-10-23T14:55:51.193Z,10.03
2023-10-23T14:58:19.489Z,8.57
2023-10-23T15:00:47.837Z,9.40
2023-10-23T15:03:16.187Z,8.77
2023-10-23T15:05:45.851Z,8.60
2023-10-23T15:08:14.112Z,13.13
2023-10-23T15:10:42.382Z,16.20
2023-10-23T15:13:10.672Z,13.03
2023-10-23T15:15:39.258Z,12.97
2023-10-23T15:18:07.620Z,10.83
2023-10-23T15:20:35.842Z,10.33
2023-10-23T15:23:07.427Z,14.47
2023-10-23T15:25:35.818Z,14.93
2023-10-23T15:28:05.301Z,13.40
2023-10-23T15:30:33.898Z,13.30
2023-10-23T15:33:02.277Z,16.80
2023-10-23T15:35:30.596Z,11.90
2023-10-23T15:37:58.896Z,7.13
2023-10-23T15:40:31.006Z,15.03
2023-10-23T15:43:00.748Z,13.70
2023-10-23T15:45:38.368Z,11.87
2023-10-23T15:48:07.043Z,12.93
2023-10-23T15:50:35.486Z,14.97
2023-10-23T15:53:03.893Z,12.50
2023-10-23T15:55:34.016Z,13.93
2023-10-23T15:58:03.152Z,10.63
2023-10-23T16:00:31.524Z,15.27
2023-10-23T16:03:00.361Z,24.73
2023-10-23T16:05:28.875Z,26.67
2023-10-23T16:07:57.236Z,18.50
2023-10-23T16:10:26.673Z,16.87
2023-10-23T16:12:56.454Z,18.67
2023-10-23T16:15:24.771Z,27.10
2023-10-23T16:17:53.108Z,17.90
2023-10-23T16:20:22.088Z,16.70
2023-10-23T16:22:50.647Z,24.13
2023-10-23T16:25:19.049Z,24.27
2023-10-23T16:27:47.434Z,19.00
2023-10-23T16:30:17.293Z,22.00
2023-10-23T16:32:46.351Z,16.90
2023-10-23T16:35:14.739Z,21.73
2023-10-23T16:37:42.989Z,18.37
2023-10-23T16:40:12.722Z,18.00
2023-10-23T16:42:41.040Z,20.07
2023-10-23T16:45:10.394Z,21.93
2023-10-23T16:47:40.410Z,22.20
2023-10-23T16:50:09.810Z,25.67
2023-10-23T16:52:38.583Z,16.93
2023-10-23T16:55:09.145Z,22.03
2023-10-23T16:57:37.728Z,20.10
2023-10-23T17:00:07.583Z,23.17
2023-10-23T17:02:36.143Z,22.50
2023-10-23T17:05:06.704Z,19.37
2023-10-23T17:07:36.210Z,25.40
2023-10-23T17:10:05.416Z,25.13
2023-10-23T17:12:33.816Z,25.93
2023-10-23T17:15:02.459Z,26.80
2023-10-23T17:17:31.067Z,28.30
2023-10-23T17:19:59.663Z,28.40
2023-10-23T17:22:29.326Z,31.40
2023-10-23T17:24:57.816Z,24.70
2023-10-23T17:27:26.209Z,37.53
2023-10-23T17:29:54.496Z,32.43
2023-10-23T17:32:22.944Z,28.37
2023-10-23T17:34:51.276Z,27.90
2023-10-23T17:37:19.622Z,30.77
2023-10-23T17:39:49.381Z,27.50
2023-10-23T17:42:17.987Z,29.77
2023-10-23T17:44:46.301Z,29.07
2023-10-23T17:47:14.640Z,31.63
2023-10-23T17:49:43.583Z,29.73
2023-10-23T17:52:12.128Z,30.17
2023-10-23T17:54:41.736Z,23.40
2023-10-23T17:57:11.466Z,24.03
2023-10-23T17:59:40.124Z,27.47
2023-10-23T18:02:08.631Z,28.40
2023-10-23T18:04:37.094Z,25.70
2023-10-23T18:07:05.470Z,27.23
2023-10-23T18:09:33.839Z,25.03
2023-10-23T18:12:02.158Z,28.73
2023-10-23T18:14:31.806Z,27.23
2023-10-23T18:17:00.263Z,25.70
2023-10-23T18:19:28.762Z,26.17
2023-10-23T18:21:57.254Z,21.70
2023-10-23T18:24:25.530Z,22.80
2023-10-23T18:26:54.080Z,25.93
2023-10-23T18:29:22.369Z,24.23
2023-10-23T18:31:52.062Z,29.53
2023-10-23T18:34:20.433Z,23.33
2023-10-23T18:36:48.784Z,22.43
2023-10-23T18:39:17.122Z,26.10
2023-10-23T18:41:45.416Z,22.90
2023-10-23T18:44:13.850Z,34.70
2023-10-23T18:46:42.250Z,27.23
2023-10-23T18:49:11.996Z,27.30
2023-10-23T18:51:40.268Z,25.67
2023-10-23T18:54:08.699Z,23.40
2023-10-23T18:56:38.567Z,20.37
2023-10-23T18:59:08.167Z,24.40
2023-10-23T19:01:36.824Z,27.40
2023-10-23T19:04:05.513Z,24.10
2023-10-23T19:06:36.947Z,20.83
2023-10-23T19:09:06.753Z,23.17
2023-10-23T19:11:35.174Z,24.30
2023-10-23T19:14:03.680Z,21.43
2023-10-23T19:16:32.132Z,30.43
2023-10-23T19:19:00.569Z,28.73
2023-10-23T19:21:28.917Z,27.60
2023-10-23T19:23:58.603Z,27.87
2023-10-23T19:26:27.471Z,23.50
2023-10-23T19:28:55.763Z,20.87
2023-10-23T19:31:25.913Z,22.73
2023-10-23T19:33:54.952Z,18.70
2023-10-23T19:36:25.701Z,19.33
2023-10-23T19:38:54.711Z,24.30
2023-10-23T19:41:29.781Z,17.20
2023-10-23T19:43:58.718Z,20.33
2023-10-23T19:46:28.034Z,19.43
2023-10-23T19:48:56.835Z,18.80
2023-10-23T19:51:25.275Z,17.67
2023-10-23T19:53:54.794Z,18.63
2023-10-23T19:56:31.525Z,17.93
2023-10-23T19:59:02.404Z,16.83
2023-10-23T20:01:31.631Z,15.73
2023-10-23T20:04:00.068Z,16.93
2023-10-23T20:06:28.518Z,16.57
2023-10-23T20:08:56.774Z,14.00
2023-10-23T20:11:25.068Z,18.33
2023-10-23T20:13:53.511Z,19.10
2023-10-23T20:16:23.258Z,15.77
2023-10-23T20:18:53.262Z,14.40
2023-10-23T20:21:21.594Z,14.63
2023-10-23T20:23:49.861Z,14.80
2023-10-23T20:26:18.405Z,12.63
2023-10-23T20:28:46.738Z,11.37
2023-10-23T20:31:18.707Z,0.40
2023-10-23T20:33:50.853Z,17.67
2023-10-23T20:36:20.040Z,14.20
2023-10-23T20:38:48.616Z,20.67
2023-10-23T20:41:17.320Z,13.20
2023-10-23T20:43:46.973Z,12.87
2023-10-23T20:46:19.433Z,18.63
2023-10-23T20:48:49.217Z,13.43
2023-10-23T20:51:17.574Z,15.40
2023-10-23T20:53:45.854Z,14.00
2023-10-23T20:56:14.180Z,12.07
2023-10-23T20:58:43.176Z,12.87
2023-10-23T21:01:11.585Z,16.13
2023-10-23T21:03:40.119Z,13.63
2023-10-23T21:06:09.970Z,22.03
2023-10-23T21:08:39.709Z,13.43
2023-10-23T21:11:08.495Z,15.60
2023-10-23T21:13:37.134Z,14.43
2023-10-23T21:16:07.651Z,19.03
2023-10-23T21:18:36.008Z,14.93
2023-10-23T21:21:05.761Z,20.67
2023-10-23T21:23:35.661Z,18.37
2023-10-23T21:26:05.370Z,21.57
2023-10-23T21:28:33.670Z,20.07
2023-10-23T21:31:02.267Z,16.57
2023-10-23T21:33:31.847Z,18.83
2023-10-23T21:36:00.278Z,19.67
2023-10-23T21:38:28.560Z,19.03
2023-10-23T21:40:58.193Z,15.80
2023-10-23T21:43:26.500Z,23.80
2023-10-23T21:46:14.961Z,24.47
2023-10-23T21:48:43.059Z,19.10
2023-10-23T21:51:11.419Z,24.57
2023-10-23T21:53:40.191Z,25.30
2023-10-23T21:56:11.427Z,19.10
2023-10-23T21:59:06.800Z,18.77
2023-10-23T22:01:29.783Z,16.53
2023-10-23T22:03:58.686Z,18.37
2023-10-23T22:06:27.622Z,18.73
2023-10-23T22:08:56.408Z,20.37
2023-10-23T22:11:26.715Z,16.07
2023-10-23T22:13:55.564Z,15.80
2023-10-23T22:16:24.028Z,16.30
2023-10-23T22:18:52.787Z,17.47
2023-10-23T22:21:21.082Z,19.10
2023-10-23T22:23:49.433Z,13.67
2023-10-23T22:26:17.672Z,15.13
2023-10-23T22:28:47.854Z,15.07
2023-10-23T22:31:16.253Z,12.47
2023-10-23T22:33:44.661Z,17.03
2023-10-23T22:36:12.915Z,16.90
2023-10-23T22:38:41.315Z,15.57
2023-10-23T22:41:09.540Z,13.47
2023-10-23T22:43:37.800Z,17.27
2023-10-23T22:46:07.641Z,17.23
2023-10-23T22:48:36.045Z,20.37
2023-10-23T22:51:04.893Z,19.53
2023-10-23T22:53:34.110Z,18.13
2023-10-23T22:56:04.525Z,17.97
2023-10-23T22:58:35.220Z,14.63
2023-10-23T23:01:04.076Z,15.70
2023-10-23T23:03:34.742Z,19.43
2023-10-23T23:06:07.305Z,15.60
2023-10-23T23:08:40.841Z,18.47
2023-10-23T23:11:11.444Z,15.43
2023-10-23T23:13:40.066Z,18.90
2023-10-23T23:16:09.424Z,14.97
2023-10-23T23:18:41.010Z,14.57
2023-10-23T23:21:10.777Z,11.53
2023-10-23T23:23:39.091Z,15.47
2023-10-23T23:26:07.642Z,15.63
2023-10-23T23:28:36.570Z,14.47
2023-10-23T23:31:04.882Z,16.13
2023-10-23T23:33:33.777Z,15.43
2023-10-23T23:36:03.571Z,19.90
2023-10-23T23:38:31.932Z,17.77
2023-10-23T23:41:00.521Z,11.03
2023-10-23T23:43:28.867Z,13.90
2023-10-23T23:45:58.368Z,13.50
2023-10-23T23:48:26.754Z,12.50
2023-10-23T23:50:55.070Z,12.00
2023-10-23T23:53:24.648Z,11.57
2023-10-23T23:55:52.962Z,12.67
2023-10-23T23:58:24.960Z,13.60
